createdAt,value
2023-12-14T00:00:53.824Z,122.30
2023-12-14T00:03:39.301Z,121.50
2023-12-14T00:06:11.125Z,126.00
2023-12-14T00:08:42.638Z,131.60
2023-12-14T00:11:14.407Z,113.10
2023-12-14T00:13:45.524Z,119.70
2023-12-14T00:18:45.961Z,116.40
2023-12-14T00:21:17.164Z,125.70
2023-12-14T00:26:17.577Z,119.70
2023-12-14T00:28:48.801Z,118.60
2023-12-14T00:33:55.412Z,119.70
2023-12-14T00:36:26.625Z,120.60
2023-12-14T00:41:27.055Z,121.60
2023-12-14T00:46:29.371Z,116.50
2023-12-14T00:51:30.101Z,118.50
2023-12-14T00:56:30.592Z,115.30
2023-12-14T01:01:31.373Z,111.80
2023-12-14T01:04:02.641Z,120.50
2023-12-14T01:09:04.391Z,106.10
2023-12-14T01:11:35.583Z,97.10
2023-12-14T01:14:06.804Z,108.30
2023-12-14T01:16:38.100Z,103.20
2023-12-14T01:19:09.329Z,110.50
2023-12-14T01:21:40.475Z,102.10
2023-12-14T01:26:41.527Z,107.00
2023-12-14T01:29:12.730Z,105.60
2023-12-14T01:31:43.857Z,105.60
2023-12-14T01:36:44.573Z,107.30
2023-12-14T01:39:15.603Z,100.60
2023-12-14T01:41:46.618Z,108.80
2023-12-14T01:46:47.039Z,106.30
2023-12-14T01:51:47.548Z,98.00
2023-12-14T01:56:47.858Z,87.80
2023-12-14T01:59:18.963Z,89.00
2023-12-14T02:04:25.070Z,92.50
2023-12-14T02:06:56.131Z,97.00
2023-12-14T02:09:27.209Z,93.10
2023-12-14T02:14:27.647Z,95.50
2023-12-14T02:19:28.087Z,86.10
2023-12-14T02:24:28.468Z,90.50
2023-12-14T02:29:35.441Z,82.70
2023-12-14T02:32:08.667Z,83.60
2023-12-14T02:34:39.843Z,77.50
2023-12-14T02:39:40.384Z,72.20
2023-12-14T02:42:11.375Z,75.00
2023-12-14T02:47:11.821Z,75.60
2023-12-14T02:52:12.248Z,69.80
2023-12-14T02:57:13.430Z,75.20
2023-12-14T02:59:44.520Z,66.80
2023-12-14T03:04:44.955Z,48.50
2023-12-14T03:09:45.486Z,49.00
2023-12-14T03:14:45.901Z,46.40
2023-12-14T03:17:17.147Z,49.50
2023-12-14T03:19:48.286Z,46.40
2023-12-14T03:24:48.688Z,55.30
2023-12-14T03:29:49.110Z,45.90
2023-12-14T03:34:49.640Z,54.00
2023-12-14T03:37:20.760Z,52.00
2023-12-14T03:42:21.247Z,53.00
2023-12-14T03:47:21.732Z,52.20
2023-12-14T03:52:22.447Z,60.30
2023-12-14T03:54:53.637Z,56.30
2023-12-14T03:57:35.065Z,56.30
2023-12-14T04:00:11.919Z,65.20
2023-12-14T04:02:43.034Z,66.80
2023-12-14T04:07:43.857Z,55.60
2023-12-14T04:10:15.322Z,51.40
2023-12-14T04:12:46.333Z,50.90
2023-12-14T04:17:46.914Z,42.20
2023-12-14T04:22:47.638Z,38.10
2023-12-14T04:25:18.841Z,39.60
2023-12-14T04:30:19.252Z,38.10
2023-12-14T04:35:20.661Z,39.50
2023-12-14T04:37:51.973Z,36.80
2023-12-14T04:40:23.305Z,39.70
2023-12-14T04:42:54.323Z,38.30
2023-12-14T04:45:25.358Z,34.60
2023-12-14T04:50:25.994Z,34.80
2023-12-14T04:55:33.012Z,38.00
2023-12-14T04:58:04.786Z,37.60
2023-12-14T05:00:35.930Z,35.60
2023-12-14T05:03:07.182Z,40.60
2023-12-14T05:05:38.302Z,34.40
2023-12-14T05:10:39.106Z,38.60
2023-12-14T05:13:10.189Z,35.00
2023-12-14T05:18:10.915Z,32.20
2023-12-14T05:20:42.035Z,31.70
2023-12-14T05:25:42.593Z,36.00
2023-12-14T05:28:13.880Z,31.90
2023-12-14T05:30:45.173Z,33.00
2023-12-14T05:33:16.896Z,31.00
2023-12-14T05:35:48.018Z,31.60
2023-12-14T05:40:48.750Z,32.20
2023-12-14T05:45:49.198Z,31.80
2023-12-14T05:50:49.719Z,33.20
2023-12-14T05:53:21.008Z,32.10
2023-12-14T05:55:58.921Z,30.70
2023-12-14T05:58:30.049Z,29.80
2023-12-14T06:03:31.187Z,31.50
2023-12-14T06:06:02.322Z,29.40
2023-12-14T06:11:03.464Z,32.90
2023-12-14T06:13:35.350Z,27.90
2023-12-14T06:16:07.302Z,30.90
2023-12-14T06:18:38.766Z,30.60
2023-12-14T06:21:12.354Z,32.00
2023-12-14T06:23:43.769Z,27.40
2023-12-14T06:26:18.046Z,34.00
2023-12-14T06:29:00.331Z,33.50
2023-12-14T06:31:31.590Z,30.70
2023-12-14T06:34:02.765Z,33.90
2023-12-14T06:36:34.188Z,38.30
2023-12-14T06:39:05.339Z,38.90
2023-12-14T06:41:36.412Z,39.30
2023-12-14T06:46:37.857Z,34.30
2023-12-14T06:49:12.312Z,35.70
2023-12-14T06:51:43.610Z,37.80
2023-12-14T06:54:14.703Z,34.60
2023-12-14T06:59:15.380Z,34.70
2023-12-14T07:01:46.442Z,39.30
2023-12-14T07:06:54.465Z,39.60
2023-12-14T07:09:25.799Z,36.50
2023-12-14T07:11:56.924Z,35.50
2023-12-14T07:16:57.854Z,36.90
2023-12-14T07:21:59.076Z,33.50
2023-12-14T07:27:02.637Z,36.20
2023-12-14T07:29:56.403Z,33.00
2023-12-14T07:32:27.529Z,33.70
2023-12-14T07:37:28.483Z,28.30
2023-12-14T07:39:59.625Z,32.20
2023-12-14T07:42:33.277Z,29.60
2023-12-14T07:45:06.997Z,29.10
2023-12-14T07:47:38.398Z,36.10
2023-12-14T07:50:10.310Z,33.60
2023-12-14T07:52:41.745Z,32.30
2023-12-14T07:55:19.842Z,32.40
2023-12-14T07:57:52.493Z,35.50
2023-12-14T08:00:23.718Z,29.00
2023-12-14T08:02:54.815Z,31.10
2023-12-14T08:07:55.754Z,38.80
2023-12-14T08:10:26.834Z,29.70
2023-12-14T08:15:27.254Z,35.10
2023-12-14T08:20:27.909Z,29.80
2023-12-14T08:22:59.010Z,28.80
2023-12-14T08:28:01.230Z,27.10
2023-12-14T08:30:33.790Z,26.50
2023-12-14T08:33:05.136Z,33.30
2023-12-14T08:35:36.251Z,30.20
2023-12-14T08:38:08.095Z,40.10
2023-12-14T08:40:39.276Z,41.70
2023-12-14T08:43:10.430Z,46.90
2023-12-14T08:45:41.921Z,46.50
2023-12-14T08:50:42.628Z,48.30
2023-12-14T08:53:13.703Z,39.50
2023-12-14T08:58:15.050Z,40.20
2023-12-14T09:00:46.193Z,40.50
2023-12-14T09:03:17.480Z,37.70
2023-12-14T09:05:49.210Z,33.30
2023-12-14T09:08:20.627Z,34.00
2023-12-14T09:10:55.942Z,33.90
2023-12-14T09:13:28.657Z,31.00
2023-12-14T09:15:59.796Z,28.40
2023-12-14T09:21:01.002Z,32.10
2023-12-14T09:26:02.482Z,27.60
2023-12-14T09:28:33.881Z,29.20
2023-12-14T09:33:38.813Z,28.30
2023-12-14T09:36:12.699Z,25.90
2023-12-14T09:38:43.918Z,25.00
2023-12-14T09:41:15.137Z,24.80
2023-12-14T09:43:47.855Z,29.70
2023-12-14T09:46:22.026Z,30.80
2023-12-14T09:48:54.654Z,31.80
2023-12-14T09:51:26.105Z,36.80
2023-12-14T09:53:57.395Z,28.80
2023-12-14T09:56:29.535Z,29.40
2023-12-14T09:59:00.631Z,28.30
2023-12-14T10:04:15.576Z,24.10
2023-12-14T10:06:48.268Z,28.60
2023-12-14T10:09:25.989Z,28.90
2023-12-14T10:12:05.991Z,33.10
2023-12-14T10:14:37.811Z,33.80
2023-12-14T10:17:20.547Z,27.80
2023-12-14T10:19:51.919Z,29.20
2023-12-14T10:22:24.005Z,26.30
2023-12-14T10:27:24.725Z,26.70
2023-12-14T10:29:56.727Z,27.30
2023-12-14T10:32:28.149Z,24.90
2023-12-14T10:34:59.355Z,25.50
2023-12-14T10:40:01.109Z,24.60
2023-12-14T10:42:33.263Z,23.10
2023-12-14T10:45:16.962Z,24.20
2023-12-14T10:47:51.795Z,25.50
2023-12-14T10:50:25.758Z,35.20
2023-12-14T10:53:08.290Z,29.10
2023-12-14T10:55:42.590Z,28.90
2023-12-14T10:58:14.181Z,28.40
2023-12-14T11:00:58.689Z,25.70
2023-12-14T11:03:36.801Z,27.30
2023-12-14T11:06:30.260Z,29.30
2023-12-14T11:09:02.859Z,29.80
2023-12-14T11:11:42.915Z,25.10
2023-12-14T11:14:15.120Z,28.40
2023-12-14T11:16:48.609Z,27.50
2023-12-14T11:19:30.530Z,27.50
2023-12-14T11:22:25.601Z,27.40
2023-12-14T11:25:02.376Z,26.90
2023-12-14T11:27:48.435Z,24.20
2023-12-14T11:30:23.334Z,19.40
2023-12-14T11:32:56.229Z,23.20
2023-12-14T11:35:27.490Z,21.60
2023-12-14T11:37:58.743Z,22.80
2023-12-14T11:40:30.285Z,26.30
2023-12-14T11:43:04.848Z,21.70
2023-12-14T11:45:37.853Z,21.40
2023-12-14T11:48:10.354Z,24.90
2023-12-14T11:50:44.725Z,23.10
2023-12-14T11:53:16.326Z,25.30
2023-12-14T11:55:54.666Z,24.30
2023-12-14T11:58:47.203Z,27.30
2023-12-14T12:01:21.173Z,26.00
2023-12-14T12:03:52.284Z,26.30
2023-12-14T12:06:27.863Z,26.40
2023-12-14T12:08:59.386Z,24.90
2023-12-14T12:11:32.168Z,22.50
2023-12-14T12:14:03.955Z,24.70
2023-12-14T12:16:35.503Z,23.90
2023-12-14T12:19:06.649Z,23.90
2023-12-14T12:24:18.404Z,22.80
2023-12-14T12:27:08.063Z,27.60
2023-12-14T12:29:39.203Z,22.70
2023-12-14T12:34:39.781Z,25.10
2023-12-14T12:39:40.170Z,25.20
2023-12-14T12:44:40.600Z,30.70
2023-12-14T12:52:12.515Z,25.40
2023-12-14T12:57:13.059Z,28.80
2023-12-14T13:02:14.084Z,24.90
2023-12-14T13:04:45.850Z,24.00
2023-12-14T13:07:18.823Z,24.10
2023-12-14T13:09:52.906Z,22.50
2023-12-14T13:12:24.213Z,28.50
2023-12-14T13:14:55.308Z,24.80
2023-12-14T13:19:56.136Z,24.20
2023-12-14T13:22:29.765Z,27.40
2023-12-14T13:25:02.426Z,26.40
2023-12-14T13:30:04.411Z,25.50
2023-12-14T13:32:35.614Z,25.40
2023-12-14T13:37:36.959Z,23.70
2023-12-14T13:40:10.171Z,22.30
2023-12-14T13:42:50.773Z,26.10
2023-12-14T13:45:30.754Z,28.20
2023-12-14T13:48:05.013Z,36.40
2023-12-14T13:50:36.619Z,34.50
2023-12-14T13:53:07.865Z,36.70
2023-12-14T13:55:39.077Z,33.10
2023-12-14T13:58:10.354Z,27.70
2023-12-14T14:00:41.629Z,24.80
2023-12-14T14:03:12.838Z,29.20
2023-12-14T14:05:44.536Z,27.80
2023-12-14T14:08:17.768Z,27.80
2023-12-14T14:10:49.269Z,30.10
2023-12-14T14:13:20.505Z,25.10
2023-12-14T14:18:21.778Z,45.00
2023-12-14T14:20:53.598Z,38.40
2023-12-14T14:23:24.724Z,48.90
2023-12-14T14:28:26.472Z,51.10
2023-12-14T14:31:20.556Z,45.70
2023-12-14T14:33:49.542Z,35.50
2023-12-14T14:36:20.708Z,31.30
2023-12-14T14:41:22.670Z,43.40
2023-12-14T14:43:56.578Z,40.40
2023-12-14T14:48:57.024Z,51.50
2023-12-14T14:53:57.614Z,36.90
2023-12-14T14:58:58.805Z,62.80
2023-12-14T15:01:30.010Z,93.90
2023-12-14T15:06:30.643Z,55.20
2023-12-14T15:09:01.746Z,50.60
2023-12-14T15:14:02.438Z,46.00
2023-12-14T15:19:03.221Z,49.80
2023-12-14T15:21:34.343Z,57.50
2023-12-14T15:26:36.363Z,59.60
2023-12-14T15:29:07.608Z,52.70
2023-12-14T15:31:38.992Z,51.70
2023-12-14T15:34:10.491Z,56.50
2023-12-14T15:36:42.882Z,69.60
2023-12-14T15:39:14.212Z,76.40
2023-12-14T15:41:47.861Z,78.30
2023-12-14T15:44:23.788Z,60.70
2023-12-14T15:46:56.610Z,49.60
2023-12-14T15:49:27.712Z,47.80
2023-12-14T15:51:59.586Z,49.00
2023-12-14T15:54:30.921Z,49.60
2023-12-14T15:57:03.836Z,49.20
2023-12-14T15:59:35.065Z,49.50
2023-12-14T16:02:08.680Z,49.50
2023-12-14T16:04:39.918Z,54.70
2023-12-14T16:09:42.838Z,62.80
2023-12-14T16:12:18.192Z,61.10
2023-12-14T16:14:49.305Z,60.80
2023-12-14T16:19:51.553Z,57.20
2023-12-14T16:22:23.155Z,80.90
2023-12-14T16:24:54.531Z,148.20
2023-12-14T16:27:25.981Z,152.70
2023-12-14T16:29:59.295Z,221.80
2023-12-14T16:32:33.370Z,152.90
2023-12-14T16:35:12.397Z,163.20
2023-12-14T16:37:43.599Z,146.80
2023-12-14T16:42:48.785Z,81.60
2023-12-14T16:45:19.907Z,75.90
2023-12-14T16:50:21.457Z,61.20
2023-12-14T16:52:52.704Z,90.60
2023-12-14T16:55:30.622Z,137.30
2023-12-14T16:58:03.061Z,259.60
2023-12-14T17:00:34.213Z,207.60
2023-12-14T17:05:34.862Z,174.50
2023-12-14T17:08:06.583Z,195.20
2023-12-14T17:10:39.169Z,227.50
2023-12-14T17:13:10.223Z,172.30
2023-12-14T17:18:11.327Z,181.80
2023-12-14T17:20:42.470Z,158.50
2023-12-14T17:25:43.162Z,83.70
2023-12-14T17:28:14.643Z,66.30
2023-12-14T17:30:46.008Z,59.10
2023-12-14T17:33:17.249Z,46.90
2023-12-14T17:35:49.122Z,47.20
2023-12-14T17:38:20.225Z,39.10
2023-12-14T17:43:23.119Z,35.10
2023-12-14T17:45:54.834Z,37.00
2023-12-14T17:48:25.999Z,44.20
2023-12-14T17:50:57.860Z,39.90
2023-12-14T17:53:29.425Z,39.20
2023-12-14T17:56:07.449Z,38.40
2023-12-14T17:58:38.649Z,35.60
2023-12-14T18:01:10.076Z,38.70
2023-12-14T18:03:41.167Z,33.10
2023-12-14T18:08:45.742Z,34.50
2023-12-14T18:11:16.921Z,31.60
2023-12-14T18:13:48.702Z,34.20
2023-12-14T18:16:20.155Z,47.50
2023-12-14T18:18:51.726Z,40.70
2023-12-14T18:21:23.055Z,44.90
2023-12-14T18:23:54.488Z,43.90
2023-12-14T18:26:25.720Z,40.30
2023-12-14T18:28:57.690Z,39.30
2023-12-14T18:31:33.078Z,34.80
2023-12-14T18:34:04.970Z,33.00
2023-12-14T18:36:36.315Z,36.70
2023-12-14T18:39:09.317Z,32.80
2023-12-14T18:41:41.049Z,31.60
2023-12-14T18:44:14.172Z,32.30
2023-12-14T18:46:45.752Z,43.40
2023-12-14T18:49:20.617Z,56.20
2023-12-14T18:51:51.994Z,52.40
2023-12-14T18:54:24.685Z,60.50
2023-12-14T18:56:57.392Z,60.00
2023-12-14T18:59:31.327Z,60.90
2023-12-14T19:02:25.708Z,56.50
2023-12-14T19:05:05.420Z,60.00
2023-12-14T19:07:37.176Z,43.00
2023-12-14T19:10:10.426Z,40.50
2023-12-14T19:12:41.559Z,36.60
2023-12-14T19:17:44.546Z,27.30
2023-12-14T19:20:16.982Z,34.40
2023-12-14T19:22:48.575Z,29.00
2023-12-14T19:25:23.953Z,32.30
2023-12-14T19:27:55.653Z,29.00
2023-12-14T19:30:26.847Z,36.80
2023-12-14T19:32:58.162Z,37.10
2023-12-14T19:35:29.239Z,43.20
2023-12-14T19:38:25.035Z,45.60
2023-12-14T19:40:54.304Z,44.10
2023-12-14T19:43:25.817Z,41.60
2023-12-14T19:46:27.874Z,38.30
2023-12-14T19:48:49.646Z,35.50
2023-12-14T19:51:21.649Z,43.60
2023-12-14T19:53:53.064Z,40.30
2023-12-14T19:56:25.903Z,46.80
2023-12-14T19:58:57.796Z,43.10
2023-12-14T20:01:42.063Z,40.90
2023-12-14T20:04:16.412Z,35.00
2023-12-14T20:07:11.602Z,36.20
2023-12-14T20:09:50.218Z,37.90
2023-12-14T20:12:28.956Z,37.10
2023-12-14T20:15:04.155Z,34.50
2023-12-14T20:17:35.555Z,37.00
2023-12-14T20:20:10.428Z,35.50
2023-12-14T20:22:41.672Z,37.30
2023-12-14T20:25:13.088Z,50.80
2023-12-14T20:27:46.529Z,60.60
2023-12-14T20:30:18.374Z,59.30
2023-12-14T20:32:50.780Z,52.50
2023-12-14T20:35:22.414Z,51.40
2023-12-14T20:37:55.247Z,53.80
2023-12-14T20:40:26.619Z,45.20
2023-12-14T20:42:57.745Z,36.50
2023-12-14T20:45:29.324Z,29.40
2023-12-14T20:48:00.584Z,25.50
2023-12-14T20:50:32.172Z,26.70
2023-12-14T20:53:03.393Z,33.80
2023-12-14T20:55:41.447Z,52.00
2023-12-14T20:58:14.206Z,73.80
2023-12-14T21:00:45.952Z,51.50
2023-12-14T21:03:17.084Z,52.20
2023-12-14T21:05:49.505Z,50.10
2023-12-14T21:08:21.435Z,46.90
2023-12-14T21:10:54.031Z,32.90
2023-12-14T21:13:25.492Z,28.80
2023-12-14T21:15:56.595Z,26.10
2023-12-14T21:20:57.975Z,27.60
2023-12-14T21:23:29.062Z,27.50
2023-12-14T21:28:33.498Z,33.70
2023-12-14T21:31:05.146Z,41.00
2023-12-14T21:33:36.368Z,46.50
2023-12-14T21:36:10.615Z,43.60
2023-12-14T21:38:41.631Z,45.00
2023-12-14T21:41:14.207Z,42.20
2023-12-14T21:43:45.455Z,42.70
2023-12-14T21:46:16.604Z,48.60
2023-12-14T21:51:20.173Z,46.60
2023-12-14T21:56:27.389Z,44.30
2023-12-14T21:58:58.474Z,35.50
2023-12-14T22:03:59.230Z,34.30
2023-12-14T22:06:30.379Z,26.80
2023-12-14T22:11:30.818Z,26.50
2023-12-14T22:16:31.422Z,38.50
2023-12-14T22:21:32.039Z,37.00
2023-12-14T22:26:34.682Z,32.80
2023-12-14T22:29:09.053Z,28.30
2023-12-14T22:31:40.086Z,30.80
2023-12-14T22:34:12.202Z,26.40
2023-12-14T22:37:09.590Z,25.10
2023-12-14T22:39:41.123Z,27.40
2023-12-14T22:42:22.751Z,25.40
2023-12-14T22:47:44.572Z,26.90
2023-12-14T22:50:15.874Z,20.70
2023-12-14T22:55:18.097Z,31.50
2023-12-14T22:57:49.322Z,43.90
2023-12-14T23:02:59.639Z,43.30
2023-12-14T23:05:30.869Z,41.00
2023-12-14T23:10:31.410Z,34.30
2023-12-14T23:15:31.884Z,30.00
2023-12-14T23:20:32.469Z,30.30
2023-12-14T23:23:03.829Z,29.50
2023-12-14T23:25:34.933Z,32.30
2023-12-14T23:30:35.877Z,28.30
2023-12-14T23:33:07.498Z,28.60
2023-12-14T23:35:45.760Z,30.50
2023-12-14T23:38:40.260Z,33.00
2023-12-14T23:43:41.393Z,41.90
2023-12-14T23:46:13.517Z,43.30
2023-12-14T23:48:44.709Z,44.40
2023-12-14T23:51:15.929Z,43.00
2023-12-14T23:56:16.299Z,38.80
2023-12-14T23:58:53.694Z,33.40
